»·PEaware :: SWA544 KLAS-KLAX

SWA544 :: KLAS-KLAX

FLIGHT INFORMATION

Flight Status: Arrived
Operator:
Southwest Airlines
More flights by this operator :: More flights under this callsign
Pilot: Noam B. (29261)
Aircraft: BOEING 737-800
(B738)
More flights by this aircraft type
Origin: KLAS McCarran Intl
United States
Destination: KLAX Los Angeles Intl
United States
More flights between these airports :: More routes between these airports
Route: +BOACH8 RIKII SHTNR ANJLL4
File this flight plan on PilotEdge
Remarks:
Altitude:
(Current/Filed)
30,000ft
Speed:
(Current/Filed)
390kts
Departed: 16-May-20 07:27 PM
Arrived: 16-May-20 08:15 PM
Distance/Time
Traveled:
205nm/0:47
Distance/Time
To Go:
Arrived

Flight Plot

Page will automatically refresh every two minutes.


Map Options




Map Legend


Flown Route
Filed Route
Departure Airport
Arrival Airport
Navaid (VOR, NDB)
Fix

Horizontal Profiles

Position Reports

Time Latitude Longitude Heading Altitude Ground
Speed
16-May-20 18:51 36.082504 -115.150440 0 2108ft 0kts
16-May-20 18:52 36.082504 -115.150440 310 2108ft 0kts
16-May-20 18:53 36.082504 -115.150440 310 2108ft 0kts
16-May-20 18:54 36.082504 -115.150440 310 2108ft 0kts
16-May-20 18:55 36.082504 -115.150440 310 2108ft 0kts
16-May-20 18:56 36.082504 -115.150440 310 2108ft 0kts
16-May-20 18:57 36.082504 -115.150440 310 2108ft 0kts
16-May-20 18:58 36.082504 -115.150440 310 2108ft 0kts
16-May-20 18:59 36.082504 -115.150440 310 2108ft 0kts
16-May-20 19:00 36.082504 -115.150440 310 2108ft 0kts
16-May-20 19:01 36.082504 -115.150440 310 2108ft 0kts
16-May-20 19:02 36.082504 -115.150440 310 2108ft 0kts
16-May-20 19:03 36.082504 -115.150440 310 2108ft 0kts
16-May-20 19:04 36.082504 -115.150440 310 2108ft 0kts
16-May-20 19:05 36.082504 -115.150440 310 2108ft 0kts
16-May-20 19:06 36.082504 -115.150440 310 2108ft 0kts
16-May-20 19:07 36.082504 -115.150440 310 2108ft 0kts
16-May-20 19:08 36.082504 -115.150440 310 2108ft 0kts
16-May-20 19:09 36.082504 -115.150440 310 2108ft 0kts
16-May-20 19:10 36.082504 -115.150440 310 2108ft 0kts
16-May-20 19:11 36.082504 -115.150440 310 2108ft 0kts
16-May-20 19:12 36.082504 -115.150440 310 2108ft 0kts
16-May-20 19:13 36.082504 -115.150440 310 2108ft 0kts
16-May-20 19:14 36.082504 -115.150440 310 2108ft 0kts
16-May-20 19:15 36.082504 -115.150440 310 2108ft 0kts
16-May-20 19:16 36.082504 -115.150440 310 2108ft 0kts
16-May-20 19:17 36.082419 -115.150314 309 2108ft 2kts
16-May-20 19:18 36.082308 -115.149711 232 2107ft 2kts
16-May-20 19:19 36.082539 -115.149545 192 2106ft 0kts
16-May-20 19:20 36.082539 -115.149545 192 2106ft 0kts
16-May-20 19:21 36.082539 -115.149545 192 2106ft 0kts
16-May-20 19:22 36.082539 -115.149545 192 2106ft 0kts
16-May-20 19:23 36.081421 -115.150704 225 2110ft 9kts
16-May-20 19:24 36.078809 -115.151109 186 2118ft 13kts
16-May-20 19:25 36.078061 -115.152339 274 2125ft 6kts
16-May-20 19:26 36.085019 -115.156911 335 2121ft 43kts
16-May-20 19:27 36.093508 -115.154171 23 2092ft 40kts
16-May-20 19:28 36.097477 -115.152064 1 2083ft 12kts
16-May-20 19:29 36.097956 -115.152401 294 2083ft 0kts
16-May-20 19:30 36.097956 -115.152401 294 2083ft 0kts
16-May-20 19:31 36.097795 -115.153986 205 2087ft 10kts
16-May-20 19:32 36.069196 -115.170529 203 2856ft 173kts
16-May-20 19:33 36.019830 -115.204014 219 4897ft 240kts
16-May-20 19:34 35.976539 -115.277964 222 7567ft 279kts
16-May-20 19:35 35.903796 -115.309826 184 10560ft 301kts
16-May-20 19:36 35.812621 -115.308399 175 12810ft 344kts
16-May-20 19:37 35.715656 -115.295665 176 15709ft 360kts
16-May-20 19:38 35.614298 -115.295724 184 18488ft 371kts
16-May-20 19:39 35.511609 -115.312565 203 20969ft 377kts
16-May-20 19:40 35.416820 -115.368910 212 22917ft 390kts
16-May-20 19:41 35.323749 -115.434548 213 23142ft 388kts
16-May-20 19:42 35.230622 -115.501714 214 25163ft 398kts
16-May-20 19:43 35.138485 -115.577925 225 27005ft 402kts
16-May-20 19:44 35.062323 -115.679763 232 28636ft 409kts
16-May-20 19:45 34.990483 -115.788974 233 29852ft 417kts
16-May-20 19:46 34.918909 -115.899933 233 29913ft 415kts
16-May-20 19:47 34.848304 -116.009615 233 29918ft 416kts
16-May-20 19:48 34.776795 -116.120481 233 29917ft 415kts
16-May-20 19:49 34.705426 -116.230838 233 29916ft 417kts
16-May-20 19:51 34.633273 -116.342055 233 29873ft 418kts
16-May-20 19:52 34.561381 -116.452526 233 29914ft 419kts
16-May-20 19:53 34.491993 -116.558677 233 29920ft 391kts
16-May-20 19:54 34.423476 -116.663290 232 30161ft 396kts
16-May-20 19:55 34.356077 -116.765754 232 28160ft 382kts
16-May-20 19:56 34.291365 -116.863830 232 26218ft 364kts
16-May-20 19:57 34.230497 -116.958146 237 24405ft 347kts
16-May-20 19:58 34.190532 -117.064709 250 21463ft 363kts
16-May-20 19:59 34.158548 -117.178372 251 19367ft 348kts
16-May-20 20:00 34.128506 -117.286541 251 17572ft 331kts
16-May-20 20:01 34.100081 -117.390433 253 15829ft 320kts
16-May-20 20:02 34.074771 -117.492534 255 13595ft 329kts
16-May-20 20:03 34.058013 -117.601525 259 12001ft 315kts
16-May-20 20:04 34.042637 -117.706499 259 10718ft 312kts
16-May-20 20:05 34.027643 -117.807639 258 9207ft 300kts
16-May-20 20:06 34.013377 -117.903167 259 7529ft 276kts
16-May-20 20:06 33.999881 -117.976201 254 6195ft 264kts
16-May-20 20:08 33.985015 -118.077254 262 4589ft 263kts
16-May-20 20:09 33.976990 -118.156376 262 3990ft 224kts
16-May-20 20:09 33.971315 -118.212954 263 3261ft 192kts
16-May-20 20:10 33.965637 -118.269192 263 2334ft 152kts
16-May-20 20:12 33.959646 -118.328211 263 1366ft 152kts
16-May-20 20:12 33.955324 -118.369025 264 683ft 144kts
16-May-20 20:13 33.950752 -118.415384 263 131ft 87kts
16-May-20 20:14 33.948740 -118.426528 226 124ft 0kts
16-May-20 20:15 33.948097 -118.427173 216 123ft 8kts
16-May-20 20:16 33.946451 -118.426050 81 121ft 14kts
16-May-20 20:17 33.947185 -118.418896 82 127ft 26kts
16-May-20 20:18 33.948275 -118.409618 83 132ft 29kts
16-May-20 20:19 33.949011 -118.401171 118 124ft 11kts
16-May-20 20:20 33.946861 -118.400499 254 128ft 5kts
16-May-20 20:21 33.946832 -118.400678 260 128ft 0kts
16-May-20 20:22 33.946832 -118.400678 260 128ft 0kts

Navigation Log

Ident Type
Flight plan parsing failed, navigation log unavailable